sensor_id;sensor_type;location;lat;lon;timestamp;pressure;altitude;pressure_sealevel;temperature;humidity
30897;BME280;64229;52.246;21.054;2023-04-05T00:01:25;101140.03;;;0.98;70.80
30897;BME280;64229;52.246;21.054;2023-04-05T00:03:51;101137.41;;;0.98;70.99
30897;BME280;64229;52.246;21.054;2023-04-05T00:06:19;101120.63;;;0.84;71.10
30897;BME280;64229;52.246;21.054;2023-04-05T00:08:46;101116.72;;;0.80;71.74
30897;BME280;64229;52.246;21.054;2023-04-05T00:11:15;101133.22;;;0.89;71.73
30897;BME280;64229;52.246;21.054;2023-04-05T00:13:40;101135.50;;;0.92;71.54
30897;BME280;64229;52.246;21.054;2023-04-05T00:16:06;101116.72;;;0.80;71.74
30897;BME280;64229;52.246;21.054;2023-04-05T00:18:31;101125.72;;;0.86;71.98
30897;BME280;64229;52.246;21.054;2023-04-05T00:20:58;101123.91;;;0.86;72.26
30897;BME280;64229;52.246;21.054;2023-04-05T00:23:23;101124.34;;;0.75;72.54
30897;BME280;64229;52.246;21.054;2023-04-05T00:25:50;101122.69;;;0.74;72.88
30897;BME280;64229;52.246;21.054;2023-04-05T00:28:16;101125.16;;;0.76;72.62
30897;BME280;64229;52.246;21.054;2023-04-05T00:30:41;101122.16;;;0.79;72.56
30897;BME280;64229;52.246;21.054;2023-04-05T00:33:06;101109.41;;;0.76;72.14
30897;BME280;64229;52.246;21.054;2023-04-05T00:35:32;101119.78;;;0.84;72.42
30897;BME280;64229;52.246;21.054;2023-04-05T00:37:57;101115.53;;;0.83;72.41
30897;BME280;64229;52.246;21.054;2023-04-05T00:40:23;101108.84;;;0.80;72.30
30897;BME280;64229;52.246;21.054;2023-04-05T00:42:48;101112.47;;;0.79;72.83
30897;BME280;64229;52.246;21.054;2023-04-05T00:45:14;101106.09;;;0.74;73.31
30897;BME280;64229;52.246;21.054;2023-04-05T00:47:43;101108.28;;;0.70;73.22
30897;BME280;64229;52.246;21.054;2023-04-05T00:50:09;101071.78;;;0.61;72.89
30897;BME280;64229;52.246;21.054;2023-04-05T00:52:36;101098.69;;;0.77;73.14
30897;BME280;64229;52.246;21.054;2023-04-05T00:55:09;101101.16;;;0.64;73.34
30897;BME280;64229;52.246;21.054;2023-04-05T00:57:34;101088.72;;;0.43;74.26
30897;BME280;64229;52.246;21.054;2023-04-05T01:00:04;101092.84;;;0.38;74.91
30897;BME280;64229;52.246;21.054;2023-04-05T01:02:36;101089.78;;;0.34;75.57
30897;BME280;64229;52.246;21.054;2023-04-05T01:05:20;101095.22;;;0.47;74.94
30897;BME280;64229;52.246;21.054;2023-04-05T01:10:45;101091.66;;;0.40;75.74
30897;BME280;64229;52.246;21.054;2023-04-05T01:13:15;101094.28;;;0.40;75.64
30897;BME280;64229;52.246;21.054;2023-04-05T01:15:40;101090.34;;;0.44;75.60
30897;BME280;64229;52.246;21.054;2023-04-05T01:18:06;101086.53;;;0.47;75.54
30897;BME280;64229;52.246;21.054;2023-04-05T01:20:38;101078.66;;;0.47;75.65
30897;BME280;64229;52.246;21.054;2023-04-05T01:23:11;101081.63;;;0.44;75.51
30897;BME280;64229;52.246;21.054;2023-04-05T01:31:07;101094.47;;;0.39;75.49
30897;BME280;64229;52.246;21.054;2023-04-05T01:33:49;101098.41;;;0.43;75.69
30897;BME280;64229;52.246;21.054;2023-04-05T01:36:32;101092.66;;;0.39;75.27
30897;BME280;64229;52.246;21.054;2023-04-05T01:39:03;101088.38;;;0.23;76.01
30897;BME280;64229;52.246;21.054;2023-04-05T01:41:29;101081.94;;;0.11;77.31
30897;BME280;64229;52.246;21.054;2023-04-05T01:43:55;101086.69;;;0.08;77.57
30897;BME280;64229;52.246;21.054;2023-04-05T01:46:20;101071.19;;;-0.02;77.37
30897;BME280;64229;52.246;21.054;2023-04-05T01:48:46;101094.06;;;0.12;77.42
30897;BME280;64229;52.246;21.054;2023-04-05T01:51:11;101079.88;;;-0.02;77.40
30897;BME280;64229;52.246;21.054;2023-04-05T01:53:36;101099.81;;;0.08;77.76
30897;BME280;64229;52.246;21.054;2023-04-05T01:56:02;101098.06;;;0.23;77.17
30897;BME280;64229;52.246;21.054;2023-04-05T01:58:27;101089.94;;;0.33;77.45
30897;BME280;64229;52.246;21.054;2023-04-05T02:00:54;101088.97;;;0.34;77.06
30897;BME280;64229;52.246;21.054;2023-04-05T02:03:20;101093.97;;;0.20;77.48
30897;BME280;64229;52.246;21.054;2023-04-05T02:05:45;101088.69;;;0.06;78.29
30897;BME280;64229;52.246;21.054;2023-04-05T02:08:11;101073.41;;;-0.14;79.15
30897;BME280;64229;52.246;21.054;2023-04-05T02:10:37;101074.41;;;-0.15;79.23
30897;BME280;64229;52.246;21.054;2023-04-05T02:13:02;101088.75;;;-0.03;78.94
30897;BME280;64229;52.246;21.054;2023-04-05T02:15:28;101077.03;;;-0.15;78.96
30897;BME280;64229;52.246;21.054;2023-04-05T02:17:54;101094.53;;;-0.07;79.32
30897;BME280;64229;52.246;21.054;2023-04-05T02:20:19;101091.00;;;-0.22;79.72
30897;BME280;64229;52.246;21.054;2023-04-05T02:22:44;101096.66;;;-0.34;80.87
30897;BME280;64229;52.246;21.054;2023-04-05T02:25:10;101063.16;;;-0.46;80.74
30897;BME280;64229;52.246;21.054;2023-04-05T02:27:36;101088.06;;;-0.19;80.59
30897;BME280;64229;52.246;21.054;2023-04-05T02:30:02;101092.13;;;-0.17;80.06
30897;BME280;64229;52.246;21.054;2023-04-05T02:32:28;101092.28;;;-0.10;80.04
30897;BME280;64229;52.246;21.054;2023-04-05T02:34:53;101083.03;;;-0.06;79.68
30897;BME280;64229;52.246;21.054;2023-04-05T02:37:19;101084.84;;;-0.07;79.36
30897;BME280;64229;52.246;21.054;2023-04-05T02:39:45;101095.97;;;-0.05;79.38
30897;BME280;64229;52.246;21.054;2023-04-05T02:42:10;101093.09;;;-0.10;79.29
30897;BME280;64229;52.246;21.054;2023-04-05T02:44:36;101082.59;;;-0.10;79.19
30897;BME280;64229;52.246;21.054;2023-04-05T02:47:01;101087.66;;;-0.08;78.86
30897;BME280;64229;52.246;21.054;2023-04-05T02:49:26;101084.22;;;-0.09;79.29
30897;BME280;64229;52.246;21.054;2023-04-05T02:51:52;101071.19;;;-0.25;79.27
30897;BME280;64229;52.246;21.054;2023-04-05T02:54:17;101087.88;;;-0.41;80.38
30897;BME280;64229;52.246;21.054;2023-04-05T02:56:42;101085.13;;;-0.47;81.11
30897;BME280;64229;52.246;21.054;2023-04-05T02:59:08;101087.16;;;-0.35;80.08
30897;BME280;64229;52.246;21.054;2023-04-05T03:01:33;101071.97;;;-0.39;80.21
30897;BME280;64229;52.246;21.054;2023-04-05T03:04:01;101084.91;;;-0.38;80.61
30897;BME280;64229;52.246;21.054;2023-04-05T03:06:26;101082.88;;;-0.27;80.12
30897;BME280;64229;52.246;21.054;2023-04-05T03:08:52;101083.28;;;-0.16;80.76
30897;BME280;64229;52.246;21.054;2023-04-05T03:11:18;101084.25;;;-0.40;81.66
30897;BME280;64229;52.246;21.054;2023-04-05T03:13:43;101085.28;;;-0.49;81.92
30897;BME280;64229;52.246;21.054;2023-04-05T03:16:09;101077.66;;;-0.59;82.68
30897;BME280;64229;52.246;21.054;2023-04-05T03:18:34;101087.84;;;-0.64;83.05
30897;BME280;64229;52.246;21.054;2023-04-05T03:21:00;101091.13;;;-0.70;84.18
30897;BME280;64229;52.246;21.054;2023-04-05T03:23:27;101067.72;;;-0.71;84.38
30897;BME280;64229;52.246;21.054;2023-04-05T03:28:23;101071.75;;;-0.61;84.53
30897;BME280;64229;52.246;21.054;2023-04-05T03:30:48;101088.09;;;-0.50;84.07
30897;BME280;64229;52.246;21.054;2023-04-05T03:33:14;101078.69;;;-0.45;84.02
30897;BME280;64229;52.246;21.054;2023-04-05T03:35:40;101086.34;;;-0.35;83.95
30897;BME280;64229;52.246;21.054;2023-04-05T03:38:05;101089.69;;;-0.41;83.95
30897;BME280;64229;52.246;21.054;2023-04-05T03:40:31;101057.63;;;-0.28;81.47
30897;BME280;64229;52.246;21.054;2023-04-05T03:42:56;101091.84;;;0.01;80.38
30897;BME280;64229;52.246;21.054;2023-04-05T03:45:22;101082.16;;;0.02;79.82
30897;BME280;64229;52.246;21.054;2023-04-05T03:47:47;101081.28;;;-0.14;80.64
30897;BME280;64229;52.246;21.054;2023-04-05T03:50:12;101080.66;;;-0.39;81.68
30897;BME280;64229;52.246;21.054;2023-04-05T03:52:38;101088.34;;;-0.37;81.81
30897;BME280;64229;52.246;21.054;2023-04-05T03:55:04;101081.53;;;-0.54;83.26
30897;BME280;64229;52.246;21.054;2023-04-05T03:57:29;101047.09;;;-0.74;83.97
30897;BME280;64229;52.246;21.054;2023-04-05T03:59:55;101077.56;;;-0.42;83.99
30897;BME280;64229;52.246;21.054;2023-04-05T04:02:20;101062.09;;;-0.60;84.00
30897;BME280;64229;52.246;21.054;2023-04-05T04:04:46;101090.50;;;-0.41;83.77
30897;BME280;64229;52.246;21.054;2023-04-05T04:07:12;101044.13;;;-0.71;84.38
30897;BME280;64229;52.246;21.054;2023-04-05T04:09:38;101081.03;;;-0.50;84.61
30897;BME280;64229;52.246;21.054;2023-04-05T04:12:03;101080.13;;;-0.34;84.65
30897;BME280;64229;52.246;21.054;2023-04-05T04:14:29;101085.50;;;-0.05;84.03
30897;BME280;64229;52.246;21.054;2023-04-05T04:16:54;101086.53;;;0.09;83.63
30897;BME280;64229;52.246;21.054;2023-04-05T04:19:20;101096.34;;;-0.08;83.38
30897;BME280;64229;52.246;21.054;2023-04-05T04:21:45;101093.50;;;-0.21;84.97
30897;BME280;64229;52.246;21.054;2023-04-05T04:24:16;101099.38;;;-0.19;84.30
30897;BME280;64229;52.246;21.054;2023-04-05T04:26:45;101103.31;;;-0.23;85.52
30897;BME280;64229;52.246;21.054;2023-04-05T04:29:10;101103.84;;;-0.27;85.50
30897;BME280;64229;52.246;21.054;2023-04-05T04:31:38;101100.41;;;-0.28;86.56
30897;BME280;64229;52.246;21.054;2023-04-05T04:34:04;101101.72;;;-0.32;86.99
30897;BME280;64229;52.246;21.054;2023-04-05T04:36:30;101099.47;;;-0.35;87.21
30897;BME280;64229;52.246;21.054;2023-04-05T04:39:03;101102.09;;;-0.12;86.42
30897;BME280;64229;52.246;21.054;2023-04-05T04:41:32;101106.84;;;-0.08;85.96
30897;BME280;64229;52.246;21.054;2023-04-05T04:44:02;101093.09;;;-0.10;85.55
30897;BME280;64229;52.246;21.054;2023-04-05T04:46:29;101094.38;;;0.09;83.88
30897;BME280;64229;52.246;21.054;2023-04-05T04:48:59;101096.03;;;0.10;83.47
30897;BME280;64229;52.246;21.054;2023-04-05T04:51:25;101092.06;;;0.14;83.08
30897;BME280;64229;52.246;21.054;2023-04-05T04:53:51;101092.25;;;0.13;83.46
30897;BME280;64229;52.246;21.054;2023-04-05T04:56:16;101067.41;;;0.01;83.17
30897;BME280;64229;52.246;21.054;2023-04-05T04:58:42;101101.53;;;0.38;81.68
30897;BME280;64229;52.246;21.054;2023-04-05T05:01:07;101068.50;;;0.06;82.06
30897;BME280;64229;52.246;21.054;2023-04-05T05:03:34;101099.41;;;0.19;82.56
30897;BME280;64229;52.246;21.054;2023-04-05T05:06:01;101093.06;;;0.13;83.65
30897;BME280;64229;52.246;21.054;2023-04-05T05:08:27;101096.84;;;0.34;82.56
30897;BME280;64229;52.246;21.054;2023-04-05T05:10:52;101105.91;;;0.46;81.84
30897;BME280;64229;52.246;21.054;2023-04-05T05:13:17;101101.34;;;0.40;80.94
30897;BME280;64229;52.246;21.054;2023-04-05T05:15:43;101105.44;;;0.42;81.59
30897;BME280;64229;52.246;21.054;2023-04-05T05:18:08;101104.53;;;0.50;81.09
30897;BME280;64229;52.246;21.054;2023-04-05T05:20:34;101106.81;;;0.53;81.70
30897;BME280;64229;52.246;21.054;2023-04-05T05:22:59;101106.47;;;0.56;81.87
30897;BME280;64229;52.246;21.054;2023-04-05T05:25:25;101115.81;;;0.73;80.17
30897;BME280;64229;52.246;21.054;2023-04-05T05:27:51;101119.97;;;0.68;80.27
30897;BME280;64229;52.246;21.054;2023-04-05T05:30:17;101112.19;;;0.60;80.58
30897;BME280;64229;52.246;21.054;2023-04-05T05:32:43;101112.63;;;0.63;80.75
30897;BME280;64229;52.246;21.054;2023-04-05T05:35:08;101087.53;;;0.46;80.72
30897;BME280;64229;52.246;21.054;2023-04-05T05:37:34;101118.16;;;0.68;81.00
30897;BME280;64229;52.246;21.054;2023-04-05T05:40:00;101111.84;;;0.77;80.26
30897;BME280;64229;52.246;21.054;2023-04-05T05:42:26;101111.75;;;1.00;76.49
30897;BME280;64229;52.246;21.054;2023-04-05T05:44:52;101117.38;;;1.12;75.09
30897;BME280;64229;52.246;21.054;2023-04-05T05:47:17;101118.28;;;1.19;74.57
30897;BME280;64229;52.246;21.054;2023-04-05T05:49:43;101119.09;;;1.20;75.28
30897;BME280;64229;52.246;21.054;2023-04-05T05:52:08;101121.78;;;1.41;71.78
30897;BME280;64229;52.246;21.054;2023-04-05T05:54:33;101120.69;;;1.50;70.14
30897;BME280;64229;52.246;21.054;2023-04-05T05:56:59;101124.38;;;1.56;69.77
30897;BME280;64229;52.246;21.054;2023-04-05T05:59:24;101121.38;;;1.59;68.52
30897;BME280;64229;52.246;21.054;2023-04-05T06:01:50;101113.13;;;1.47;69.82
30897;BME280;64229;52.246;21.054;2023-04-05T06:04:16;101130.63;;;1.55;69.66
30897;BME280;64229;52.246;21.054;2023-04-05T06:06:41;101128.19;;;1.53;70.37
30897;BME280;64229;52.246;21.054;2023-04-05T06:09:09;101124.00;;;1.59;69.41
30897;BME280;64229;52.246;21.054;2023-04-05T06:11:34;101126.72;;;1.65;69.44
30897;BME280;64229;52.246;21.054;2023-04-05T06:14:00;101133.97;;;1.63;68.91
30897;BME280;64229;52.246;21.054;2023-04-05T06:16:25;101135.47;;;1.36;68.91
30897;BME280;64229;52.246;21.054;2023-04-05T06:18:51;101081.47;;;0.90;69.88
30897;BME280;64229;52.246;21.054;2023-04-05T06:21:16;101128.03;;;0.96;70.46
30897;BME280;64229;52.246;21.054;2023-04-05T06:23:42;101123.91;;;1.01;70.92
30897;BME280;64229;52.246;21.054;2023-04-05T06:26:08;101137.66;;;1.33;69.15
30897;BME280;64229;52.246;21.054;2023-04-05T06:28:33;101110.13;;;0.99;69.56
30897;BME280;64229;52.246;21.054;2023-04-05T06:30:59;101147.19;;;1.19;69.70
30897;BME280;64229;52.246;21.054;2023-04-05T06:33:24;101114.56;;;1.28;67.83
30897;BME280;64229;52.246;21.054;2023-04-05T06:35:50;101118.78;;;1.44;66.77
30897;BME280;64229;52.246;21.054;2023-04-05T06:38:16;101145.81;;;1.38;67.11
30897;BME280;64229;52.246;21.054;2023-04-05T06:40:41;101144.25;;;1.43;66.60
30897;BME280;64229;52.246;21.054;2023-04-05T06:43:07;101144.88;;;1.60;67.28
30897;BME280;64229;52.246;21.054;2023-04-05T06:45:32;101145.84;;;1.74;66.83
30897;BME280;64229;52.246;21.054;2023-04-05T06:47:57;101140.75;;;1.72;67.25
30897;BME280;64229;52.246;21.054;2023-04-05T06:50:23;101145.31;;;1.64;67.92
30897;BME280;64229;52.246;21.054;2023-04-05T06:52:48;101142.06;;;1.62;67.29
30897;BME280;64229;52.246;21.054;2023-04-05T06:55:14;101149.66;;;1.71;66.71
30897;BME280;64229;52.246;21.054;2023-04-05T06:57:39;101155.25;;;1.83;66.47
30897;BME280;64229;52.246;21.054;2023-04-05T07:00:06;101149.69;;;1.93;64.95
30897;BME280;64229;52.246;21.054;2023-04-05T07:02:36;101153.56;;;1.97;63.95
30897;BME280;64229;52.246;21.054;2023-04-05T07:05:01;101149.50;;;1.94;63.99
30897;BME280;64229;52.246;21.054;2023-04-05T07:07:37;101148.38;;;1.82;65.10
30897;BME280;64229;52.246;21.054;2023-04-05T07:10:03;101138.25;;;1.64;65.37
30897;BME280;64229;52.246;21.054;2023-04-05T07:12:29;101134.19;;;1.83;63.84
30897;BME280;64229;52.246;21.054;2023-04-05T07:14:54;101117.78;;;1.81;64.22
30897;BME280;64229;52.246;21.054;2023-04-05T07:17:20;101158.47;;;2.21;63.40
30897;BME280;64229;52.246;21.054;2023-04-05T07:19:45;101160.59;;;2.32;62.84
30897;BME280;64229;52.246;21.054;2023-04-05T07:22:11;101120.72;;;1.93;63.32
30897;BME280;64229;52.246;21.054;2023-04-05T07:24:36;101157.03;;;1.97;63.86
30897;BME280;64229;52.246;21.054;2023-04-05T07:27:01;101142.50;;;1.65;64.88
30897;BME280;64229;52.246;21.054;2023-04-05T07:29:28;101159.84;;;1.96;64.09
30897;BME280;64229;52.246;21.054;2023-04-05T07:31:53;101163.09;;;2.19;63.04
30897;BME280;64229;52.246;21.054;2023-04-05T07:34:18;101163.50;;;2.38;62.61
30897;BME280;64229;52.246;21.054;2023-04-05T07:36:44;101158.84;;;2.40;61.64
30897;BME280;64229;52.246;21.054;2023-04-05T07:39:10;101167.66;;;2.53;60.00
30897;BME280;64229;52.246;21.054;2023-04-05T07:41:36;101156.06;;;2.48;61.20
30897;BME280;64229;52.246;21.054;2023-04-05T07:44:02;101162.84;;;2.57;61.46
30897;BME280;64229;52.246;21.054;2023-04-05T07:46:27;101155.81;;;2.43;61.89
30897;BME280;64229;52.246;21.054;2023-04-05T07:48:54;101165.72;;;2.41;62.17
30897;BME280;64229;52.246;21.054;2023-04-05T07:51:19;101177.53;;;2.45;62.87
30897;BME280;64229;52.246;21.054;2023-04-05T07:53:45;101167.34;;;2.63;61.99
30897;BME280;64229;52.246;21.054;2023-04-05T07:56:11;101165.31;;;2.37;63.21
30897;BME280;64229;52.246;21.054;2023-04-05T07:58:38;101163.69;;;2.36;64.08
30897;BME280;64229;52.246;21.054;2023-04-05T08:01:06;101166.28;;;2.57;63.26
30897;BME280;64229;52.246;21.054;2023-04-05T08:03:32;101143.84;;;2.40;62.93
30897;BME280;64229;52.246;21.054;2023-04-05T08:06:08;101161.44;;;2.61;63.14
30897;BME280;64229;52.246;21.054;2023-04-05T08:08:33;101160.56;;;2.54;63.62
30897;BME280;64229;52.246;21.054;2023-04-05T08:11:02;101164.09;;;2.61;63.01
30897;BME280;64229;52.246;21.054;2023-04-05T08:13:27;101166.63;;;2.76;63.32
30897;BME280;64229;52.246;21.054;2023-04-05T08:15:55;101153.22;;;2.71;61.78
30897;BME280;64229;52.246;21.054;2023-04-05T08:18:20;101172.06;;;2.68;62.26
30897;BME280;64229;52.246;21.054;2023-04-05T08:20:50;101171.66;;;2.99;60.69
30897;BME280;64229;52.246;21.054;2023-04-05T08:23:16;101168.31;;;3.18;59.63
30897;BME280;64229;52.246;21.054;2023-04-05T08:25:41;101163.44;;;3.15;59.06
30897;BME280;64229;52.246;21.054;2023-04-05T08:28:06;101170.94;;;3.18;58.52
30897;BME280;64229;52.246;21.054;2023-04-05T08:30:32;101176.66;;;3.22;58.89
30897;BME280;64229;52.246;21.054;2023-04-05T08:32:57;101168.84;;;3.07;59.51
30897;BME280;64229;52.246;21.054;2023-04-05T08:35:22;101166.47;;;3.18;58.80
30897;BME280;64229;52.246;21.054;2023-04-05T08:37:48;101175.88;;;3.28;57.81
30897;BME280;64229;52.246;21.054;2023-04-05T08:40:13;101175.91;;;3.34;57.44
30897;BME280;64229;52.246;21.054;2023-04-05T08:42:45;101173.69;;;3.31;57.42
30897;BME280;64229;52.246;21.054;2023-04-05T08:45:16;101179.88;;;3.17;56.48
30897;BME280;64229;52.246;21.054;2023-04-05T08:47:44;101173.50;;;3.05;57.38
30897;BME280;64229;52.246;21.054;2023-04-05T08:50:10;101155.31;;;2.82;57.52
30897;BME280;64229;52.246;21.054;2023-04-05T08:52:38;101174.91;;;3.01;58.34
30897;BME280;64229;52.246;21.054;2023-04-05T08:55:07;101172.63;;;2.91;58.03
30897;BME280;64229;52.246;21.054;2023-04-05T08:57:36;101176.69;;;2.94;57.75
30897;BME280;64229;52.246;21.054;2023-04-05T09:00:05;101181.44;;;3.05;57.96
30897;BME280;64229;52.246;21.054;2023-04-05T09:02:32;101172.94;;;3.09;57.21
30897;BME280;64229;52.246;21.054;2023-04-05T09:04:58;101181.03;;;3.08;57.11
30897;BME280;64229;52.246;21.054;2023-04-05T09:07:26;101155.78;;;2.92;57.77
30897;BME280;64229;52.246;21.054;2023-04-05T09:09:55;101175.84;;;3.21;57.40
30897;BME280;64229;52.246;21.054;2023-04-05T09:12:24;101171.25;;;3.36;55.38
30897;BME280;64229;52.246;21.054;2023-04-05T09:14:50;101168.88;;;3.48;54.55
30897;BME280;64229;52.246;21.054;2023-04-05T09:17:17;101173.13;;;3.42;55.78
30897;BME280;64229;52.246;21.054;2023-04-05T09:19:46;101178.50;;;3.62;54.69
30897;BME280;64229;52.246;21.054;2023-04-05T09:22:14;101152.50;;;3.66;53.46
30897;BME280;64229;52.246;21.054;2023-04-05T09:24:44;101178.16;;;3.92;53.08
30897;BME280;64229;52.246;21.054;2023-04-05T09:27:11;101180.06;;;4.04;52.44
30897;BME280;64229;52.246;21.054;2023-04-05T09:29:39;101179.88;;;4.19;50.52
30897;BME280;64229;52.246;21.054;2023-04-05T09:32:06;101182.91;;;4.23;50.52
30897;BME280;64229;52.246;21.054;2023-04-05T09:34:33;101179.97;;;3.78;50.88
30897;BME280;64229;52.246;21.054;2023-04-05T09:37:00;101177.91;;;3.67;52.07
30897;BME280;64229;52.246;21.054;2023-04-05T09:39:30;101173.63;;;3.66;53.17
30897;BME280;64229;52.246;21.054;2023-04-05T09:42:06;101181.38;;;3.81;52.68
30897;BME280;64229;52.246;21.054;2023-04-05T09:47:17;101178.00;;;4.13;50.70
30897;BME280;64229;52.246;21.054;2023-04-05T09:49:43;101178.00;;;4.13;49.23
30897;BME280;64229;52.246;21.054;2023-04-05T09:52:20;101175.16;;;4.15;49.80
30897;BME280;64229;52.246;21.054;2023-04-05T09:54:45;101178.84;;;4.20;49.57
30897;BME280;64229;52.246;21.054;2023-04-05T09:57:11;101181.31;;;4.28;49.90
30897;BME280;64229;52.246;21.054;2023-04-05T09:59:38;101188.41;;;4.28;51.86
30897;BME280;64229;52.246;21.054;2023-04-05T10:02:04;101173.16;;;4.23;50.50
30897;BME280;64229;52.246;21.054;2023-04-05T10:04:45;101180.84;;;4.12;51.84
30897;BME280;64229;52.246;21.054;2023-04-05T10:07:18;101173.31;;;3.95;52.64
30897;BME280;64229;52.246;21.054;2023-04-05T10:09:47;101173.22;;;3.69;52.82
30897;BME280;64229;52.246;21.054;2023-04-05T10:12:20;101166.69;;;3.58;53.69
30897;BME280;64229;52.246;21.054;2023-04-05T10:14:48;101175.16;;;3.40;54.75
30897;BME280;64229;52.246;21.054;2023-04-05T10:17:24;101169.06;;;3.46;54.48
30897;BME280;64229;52.246;21.054;2023-04-05T10:20:20;101177.72;;;3.75;52.79
30897;BME280;64229;52.246;21.054;2023-04-05T10:23:07;101176.50;;;3.77;51.85
30897;BME280;64229;52.246;21.054;2023-04-05T10:28:11;101158.22;;;3.83;52.78
30897;BME280;64229;52.246;21.054;2023-04-05T10:30:45;101160.19;;;3.54;53.09
30897;BME280;64229;52.246;21.054;2023-04-05T10:33:19;101169.81;;;3.75;52.73
30897;BME280;64229;52.246;21.054;2023-04-05T10:36:08;101163.78;;;3.94;52.83
30897;BME280;64229;52.246;21.054;2023-04-05T10:41:17;101169.31;;;4.52;49.62
30897;BME280;64229;52.246;21.054;2023-04-05T10:43:43;101160.56;;;4.85;46.99
30897;BME280;64229;52.246;21.054;2023-04-05T10:46:10;101164.63;;;4.54;48.23
30897;BME280;64229;52.246;21.054;2023-04-05T10:51:23;101147.56;;;4.57;48.61
30897;BME280;64229;52.246;21.054;2023-04-05T10:53:50;101168.44;;;5.25;48.25
30897;BME280;64229;52.246;21.054;2023-04-05T10:56:16;101154.38;;;5.75;46.19
30897;BME280;64229;52.246;21.054;2023-04-05T10:58:43;101153.72;;;5.80;44.84
30897;BME280;64229;52.246;21.054;2023-04-05T11:01:09;101156.56;;;5.40;45.68
30897;BME280;64229;52.246;21.054;2023-04-05T11:03:49;101152.66;;;5.49;45.30
30897;BME280;64229;52.246;21.054;2023-04-05T11:08:48;101149.19;;;5.56;44.82
30897;BME280;64229;52.246;21.054;2023-04-05T11:11:16;101150.38;;;5.02;45.96
30897;BME280;64229;52.246;21.054;2023-04-05T11:13:51;101153.19;;;5.13;45.71
30897;BME280;64229;52.246;21.054;2023-04-05T11:16:18;101145.69;;;4.97;44.79
30897;BME280;64229;52.246;21.054;2023-04-05T11:18:45;101141.38;;;5.09;44.39
30897;BME280;64229;52.246;21.054;2023-04-05T11:21:19;101147.56;;;5.48;43.79
30897;BME280;64229;52.246;21.054;2023-04-05T11:24:05;101150.41;;;5.98;43.43
30897;BME280;64229;52.246;21.054;2023-04-05T11:26:54;101152.13;;;5.79;43.44
30897;BME280;64229;52.246;21.054;2023-04-05T11:29:46;101146.22;;;5.77;41.89
30897;BME280;64229;52.246;21.054;2023-04-05T11:32:13;101102.69;;;5.60;41.25
30897;BME280;64229;52.246;21.054;2023-04-05T11:34:41;101150.34;;;5.66;42.03
30897;BME280;64229;52.246;21.054;2023-04-05T11:37:06;101144.53;;;5.82;41.42
30897;BME280;64229;52.246;21.054;2023-04-05T11:39:32;101146.34;;;5.89;41.13
30897;BME280;64229;52.246;21.054;2023-04-05T11:42:10;101146.81;;;5.79;41.99
30897;BME280;64229;52.246;21.054;2023-04-05T11:44:41;101152.59;;;5.63;41.17
30897;BME280;64229;52.246;21.054;2023-04-05T11:47:07;101161.97;;;5.65;42.25
30897;BME280;64229;52.246;21.054;2023-04-05T11:49:33;101154.50;;;5.49;42.66
30897;BME280;64229;52.246;21.054;2023-04-05T11:52:09;101160.81;;;5.41;43.04
30897;BME280;64229;52.246;21.054;2023-04-05T11:54:34;101159.84;;;5.29;43.02
30897;BME280;64229;52.246;21.054;2023-04-05T11:57:00;101159.09;;;5.15;43.68
30897;BME280;64229;52.246;21.054;2023-04-05T11:59:29;101155.41;;;5.16;43.93
30897;BME280;64229;52.246;21.054;2023-04-05T12:02:03;101156.75;;;5.39;42.72
30897;BME280;64229;52.246;21.054;2023-04-05T12:04:30;101150.03;;;5.43;42.45
30897;BME280;64229;52.246;21.054;2023-04-05T12:07:12;101153.75;;;5.29;42.42
30897;BME280;64229;52.246;21.054;2023-04-05T12:12:22;101159.31;;;4.87;44.12
30897;BME280;64229;52.246;21.054;2023-04-05T12:14:48;101151.22;;;4.82;44.05
30897;BME280;64229;52.246;21.054;2023-04-05T12:17:13;101152.19;;;4.88;44.16
30897;BME280;64229;52.246;21.054;2023-04-05T12:19:38;101152.03;;;4.89;44.02
30897;BME280;64229;52.246;21.054;2023-04-05T12:22:04;101157.88;;;5.05;43.74
30897;BME280;64229;52.246;21.054;2023-04-05T12:24:30;101152.38;;;5.13;43.77
30897;BME280;64229;52.246;21.054;2023-04-05T12:26:55;101154.81;;;5.14;43.66
30897;BME280;64229;52.246;21.054;2023-04-05T12:29:21;101135.31;;;4.96;43.94
30897;BME280;64229;52.246;21.054;2023-04-05T12:31:49;101152.41;;;4.93;44.36
30897;BME280;64229;52.246;21.054;2023-04-05T12:34:22;101148.16;;;4.92;42.75
30897;BME280;64229;52.246;21.054;2023-04-05T12:36:48;101148.16;;;4.72;42.93
30897;BME280;64229;52.246;21.054;2023-04-05T12:39:15;101148.53;;;4.89;42.46
30897;BME280;64229;52.246;21.054;2023-04-05T12:41:41;101148.78;;;4.61;42.79
30897;BME280;64229;52.246;21.054;2023-04-05T12:44:27;101145.28;;;4.14;43.84
30897;BME280;64229;52.246;21.054;2023-04-05T12:47:00;101134.56;;;4.42;43.93
30897;BME280;64229;52.246;21.054;2023-04-05T12:49:36;101136.16;;;4.23;43.84
30897;BME280;64229;52.246;21.054;2023-04-05T12:52:01;101137.97;;;4.10;44.00
30897;BME280;64229;52.246;21.054;2023-04-05T12:54:27;101135.47;;;3.75;44.96
30897;BME280;64229;52.246;21.054;2023-04-05T12:56:53;101135.94;;;3.98;45.20
30897;BME280;64229;52.246;21.054;2023-04-05T12:59:19;101133.75;;;4.28;44.73
30897;BME280;64229;52.246;21.054;2023-04-05T13:01:45;101120.69;;;4.14;43.99
30897;BME280;64229;52.246;21.054;2023-04-05T13:04:10;101135.13;;;4.11;44.39
30897;BME280;64229;52.246;21.054;2023-04-05T13:06:36;101132.72;;;4.36;44.40
30897;BME280;64229;52.246;21.054;2023-04-05T13:09:01;101134.72;;;4.67;43.07
30897;BME280;64229;52.246;21.054;2023-04-05T13:11:27;101136.56;;;4.73;43.11
30897;BME280;64229;52.246;21.054;2023-04-05T13:13:52;101144.28;;;4.75;43.29
30897;BME280;64229;52.246;21.054;2023-04-05T13:16:17;101138.75;;;4.96;43.10